Monday, December 22, 2014, 10:32 AM EST

KOKV, Winchester Regional

Location: Winchester, VA, United States Lat: 39.15
Local Time: 10:32 AM EST (15:32 GMT) Lon: -78.15
Time Zone: US/Eastern Elev: 728 ft

Show me the last for .
Show Decoded

2014-12-22 10:15 METAR KOKV 221515Z AUTO 00000KT 5SM HZ OVC033 00/M05 A3027 RMK AO2 =
2014-12-22 09:55 METAR KOKV 221455Z AUTO 08003KT 5SM HZ OVC033 00/M04 A3026 RMK AO2 =
2014-12-22 09:35 METAR KOKV 221435Z AUTO 00000KT 5SM HZ OVC033 00/M05 A3027 RMK AO2 =
2014-12-22 09:15 METAR KOKV 221415Z AUTO 04003KT 5SM HZ OVC033 00/M05 A3026 RMK AO2 =
2014-12-22 08:55 METAR KOKV 221355Z AUTO 00000KT 5SM HZ OVC033 00/M05 A3026 RMK AO2 =
2014-12-22 08:35 METAR KOKV 221335Z AUTO 36003KT 5SM HZ OVC035 00/M05 A3025 RMK AO2 =
2014-12-22 08:15 METAR KOKV 221315Z AUTO 00000KT 5SM HZ OVC035 00/M05 A3025 RMK AO2 =
2014-12-22 07:55 METAR KOKV 221255Z AUTO 02003KT 5SM HZ OVC037 00/M05 A3025 RMK AO2 =
2014-12-22 07:35 METAR KOKV 221235Z AUTO 00000KT 7SM OVC035 M01/M05 A3025 RMK AO2 =
2014-12-22 07:15 METAR KOKV 221215Z AUTO 00000KT 7SM OVC035 M01/M05 A3025 RMK AO2 =
2014-12-22 06:55 METAR KOKV 221155Z AUTO 03004KT 7SM OVC037 M01/M05 A3024 RMK AO2 =
2014-12-22 06:35 METAR KOKV 221135Z AUTO 00000KT 7SM OVC037 M01/M05 A3024 RMK AO2 =
2014-12-22 06:15 METAR KOKV 221115Z AUTO 00000KT 7SM OVC037 M01/M05 A3025 RMK AO2 =
2014-12-22 05:55 METAR KOKV 221055Z AUTO 00000KT 7SM OVC039 M01/M05 A3025 RMK AO2 =
2014-12-22 05:35 METAR KOKV 221035Z AUTO 00000KT 7SM OVC039 M01/M05 A3025 RMK AO2 =
2014-12-22 05:15 METAR KOKV 221015Z AUTO 00000KT 7SM OVC039 M01/M05 A3023 RMK AO2 =
2014-12-22 04:55 METAR KOKV 220955Z AUTO 00000KT 7SM OVC039 M01/M05 A3023 RMK AO2 =
2014-12-22 04:35 METAR KOKV 220935Z AUTO 00000KT 7SM OVC039 M01/M06 A3023 RMK AO2 =
2014-12-22 04:15 METAR KOKV 220915Z AUTO 00000KT 7SM OVC039 M01/M06 A3024 RMK AO2 =
2014-12-22 03:55 METAR KOKV 220855Z AUTO 03003KT 7SM OVC039 M02/M06 A3025 RMK AO2 =
2014-12-22 03:35 METAR KOKV 220835Z AUTO 00000KT 7SM OVC039 M02/M06 A3026 RMK AO2 =
2014-12-22 03:15 METAR KOKV 220815Z AUTO 00000KT 7SM OVC039 M02/M06 A3027 RMK AO2 =
2014-12-22 02:55 METAR KOKV 220755Z AUTO 00000KT 7SM BKN039 M02/M06 A3027 RMK AO2 =
2014-12-22 02:35 METAR KOKV 220735Z AUTO 01003KT 7SM CLR M02/M07 A3027 RMK AO2 =
2014-12-22 02:15 METAR KOKV 220715Z AUTO 01003KT 7SM CLR M02/M06 A3028 RMK AO2 =
2014-12-22 01:55 METAR KOKV 220655Z AUTO 03003KT 7SM CLR M02/M06 A3028 RMK AO2 =
2014-12-22 01:35 METAR KOKV 220635Z AUTO 00000KT 7SM CLR M02/M07 A3029 RMK AO2 =
2014-12-22 01:15 METAR KOKV 220615Z AUTO 00000KT 7SM CLR M02/M06 A3029 RMK AO2 =
2014-12-22 00:55 METAR KOKV 220555Z AUTO 00000KT 7SM CLR M03/M06 A3028 RMK AO2 =
2014-12-22 00:35 METAR KOKV 220535Z AUTO 00000KT 7SM CLR M03/M07 A3029 RMK AO2 =
2014-12-22 00:15 METAR KOKV 220515Z AUTO 00000KT 7SM CLR M02/M06 A3029 RMK AO2 =
2014-12-21 23:55 METAR KOKV 220455Z AUTO 00000KT 7SM CLR M02/M06 A3028 RMK AO2 =
2014-12-21 23:35 METAR KOKV 220435Z AUTO 00000KT 7SM CLR M03/M06 A3029 RMK AO2 =
2014-12-21 23:15 METAR KOKV 220415Z AUTO 00000KT 7SM CLR M03/M06 A3030 RMK AO2 =
2014-12-21 22:55 METAR KOKV 220355Z AUTO 00000KT 7SM CLR M02/M06 A3030 RMK AO2 =
2014-12-21 22:35 METAR KOKV 220335Z AUTO 00000KT 7SM CLR M02/M06 A3030 RMK AO2 =
2014-12-21 22:15 METAR KOKV 220315Z AUTO 00000KT 7SM CLR M02/M06 A3030 RMK AO2 =
2014-12-21 21:55 METAR KOKV 220255Z AUTO 00000KT 7SM CLR M01/M06 A3029 RMK AO2 =
2014-12-21 21:35 METAR KOKV 220235Z AUTO 00000KT 7SM CLR M02/M06 A3030 RMK AO2 =
2014-12-21 21:15 METAR KOKV 220215Z AUTO 00000KT 7SM CLR M01/M06 A3029 RMK AO2 =
2014-12-21 20:55 METAR KOKV 220155Z AUTO 00000KT 7SM CLR M02/M06 A3029 RMK AO2 =
2014-12-21 20:35 METAR KOKV 220135Z AUTO 00000KT 10SM CLR M01/M06 A3029 RMK AO2 =
2014-12-21 20:15 METAR KOKV 220115Z AUTO 00000KT 10SM CLR M01/M06 A3028 RMK AO2 =
2014-12-21 19:55 METAR KOKV 220055Z AUTO 00000KT 10SM CLR 00/M06 A3028 RMK AO2 =
2014-12-21 19:35 METAR KOKV 220035Z AUTO 00000KT 10SM CLR 00/M06 A3029 RMK AO2 =
2014-12-21 19:15 METAR KOKV 220015Z AUTO 00000KT 10SM CLR 00/M06 A3028 RMK AO2 =
2014-12-21 18:55 METAR KOKV 212355Z AUTO 00000KT 10SM CLR 01/M06 A3028 RMK AO2 =
2014-12-21 18:35 METAR KOKV 212335Z AUTO 00000KT 10SM CLR 01/M05 A3028 RMK AO2 =
2014-12-21 18:15 METAR KOKV 212315Z AUTO 00000KT 10SM CLR 01/M05 A3028 RMK AO2 =
2014-12-21 17:55 METAR KOKV 212255Z AUTO 00000KT 10SM CLR 01/M05 A3029 RMK AO2 =
2014-12-21 17:35 METAR KOKV 212235Z AUTO 08003KT 10SM CLR 01/M05 A3028 RMK AO2 =
2014-12-21 17:15 METAR KOKV 212215Z AUTO 10003KT 10SM CLR 01/M05 A3026 RMK AO2 =
2014-12-21 16:55 METAR KOKV 212155Z AUTO 08003KT 10SM CLR 03/M05 A3026 RMK AO2 =
2014-12-21 16:35 METAR KOKV 212135Z AUTO 10003KT 10SM CLR 03/M05 A3027 RMK AO2 =
2014-12-21 16:15 METAR KOKV 212115Z AUTO 14003KT 10SM CLR 04/M05 A3027 RMK AO2 =
2014-12-21 15:55 METAR KOKV 212055Z AUTO 14003KT 10SM CLR 05/M05 A3025 RMK AO2 =
2014-12-21 15:35 METAR KOKV 212035Z AUTO 09003KT 10SM CLR 05/M06 A3025 RMK AO2 =
2014-12-21 15:15 METAR KOKV 212015Z AUTO 00000KT 10SM CLR 05/M06 A3025 RMK AO2 =
2014-12-21 14:55 METAR KOKV 211955Z AUTO 20003KT 10SM CLR 05/M06 A3025 RMK AO2 =
2014-12-21 14:35 METAR KOKV 211935Z AUTO 16003KT 10SM CLR 05/M06 A3025 RMK AO2 =
2014-12-21 14:15 METAR KOKV 211915Z AUTO 00000KT 10SM CLR 05/M06 A3026 RMK AO2 =
2014-12-21 13:55 METAR KOKV 211855Z AUTO 00000KT 10SM CLR 05/M06 A3026 RMK AO2 =
2014-12-21 13:35 METAR KOKV 211835Z AUTO 00000KT 10SM CLR 05/M06 A3027 RMK AO2 =
2014-12-21 13:15 METAR KOKV 211815Z AUTO 11003KT 10SM CLR 05/M06 A3028 RMK AO2 =
2014-12-21 12:55 METAR KOKV 211755Z AUTO 00000KT 10SM CLR 04/M06 A3029 RMK AO2 =
2014-12-21 12:35 METAR KOKV 211735Z AUTO 00000KT 10SM SCT036 03/M06 A3029 RMK AO2 =
2014-12-21 12:15 METAR KOKV 211715Z AUTO 00000KT 10SM BKN036 OVC065 03/M06 A3030 RMK AO2 =
2014-12-21 11:55 METAR KOKV 211655Z AUTO 00000KT 10SM SCT036 OVC065 02/M06 A3032 RMK AO2 =
2014-12-21 11:35 METAR KOKV 211635Z AUTO 00000KT 10SM OVC065 02/M06 A3032 RMK AO2 =
2014-12-21 11:15 METAR KOKV 211615Z AUTO 00000KT 10SM SCT036 OVC065 02/M06 A3033 RMK AO2 =
2014-12-21 10:55 METAR KOKV 211555Z AUTO 00000KT 10SM SCT036 OVC065 02/M06 A3033 RMK AO2 =
2014-12-21 10:35 METAR KOKV 211535Z AUTO 00000KT 10SM BKN036 OVC065 01/M06 A3034 RMK AO2 =

Support USWX by starting your Amazon purchase here.